sensor_id;sensor_type;location;lat;lon;timestamp;pressure;altitude;pressure_sealevel;temperature
61595;BMP280;47397;48.194;11.632;2023-12-20T00:00:13;95910.69;;;6.17
61595;BMP280;47397;48.194;11.632;2023-12-20T00:01:14;95909.03;;;6.14
61595;BMP280;47397;48.194;11.632;2023-12-20T00:02:14;95909.03;;;6.14
61595;BMP280;47397;48.194;11.632;2023-12-20T00:03:15;95911.53;;;6.16
61595;BMP280;47397;48.194;11.632;2023-12-20T00:04:15;95912.38;;;6.15
61595;BMP280;47397;48.194;11.632;2023-12-20T00:05:16;95910.72;;;6.14
61595;BMP280;47397;48.194;11.632;2023-12-20T00:06:16;95905.66;;;6.15
61595;BMP280;47397;48.194;11.632;2023-12-20T00:07:17;95909.84;;;6.16
61595;BMP280;47397;48.194;11.632;2023-12-20T00:08:17;95909.03;;;6.13
61595;BMP280;47397;48.194;11.632;2023-12-20T00:09:17;95910.69;;;6.18
61595;BMP280;47397;48.194;11.632;2023-12-20T00:10:18;95900.59;;;6.18
61595;BMP280;47397;48.194;11.632;2023-12-20T00:11:18;95888.00;;;6.14
61595;BMP280;47397;48.194;11.632;2023-12-20T00:12:19;95890.53;;;6.12
61595;BMP280;47397;48.194;11.632;2023-12-20T00:13:19;95882.94;;;6.17
61595;BMP280;47397;48.194;11.632;2023-12-20T00:14:19;95882.91;;;6.20
61595;BMP280;47397;48.194;11.632;2023-12-20T00:15:21;95896.38;;;6.20
61595;BMP280;47397;48.194;11.632;2023-12-20T00:16:21;95885.41;;;6.21
61595;BMP280;47397;48.194;11.632;2023-12-20T00:17:22;95885.41;;;6.24
61595;BMP280;47397;48.194;11.632;2023-12-20T00:18:22;95888.78;;;6.23
61595;BMP280;47397;48.194;11.632;2023-12-20T00:19:23;95885.41;;;6.23
61595;BMP280;47397;48.194;11.632;2023-12-20T00:20:23;95886.22;;;6.25
61595;BMP280;47397;48.194;11.632;2023-12-20T00:21:24;95887.06;;;6.27
61595;BMP280;47397;48.194;11.632;2023-12-20T00:22:24;95892.97;;;6.23
61595;BMP280;47397;48.194;11.632;2023-12-20T00:23:24;95893.81;;;6.23
61595;BMP280;47397;48.194;11.632;2023-12-20T00:24:25;95893.78;;;6.28
61595;BMP280;47397;48.194;11.632;2023-12-20T00:25:25;95897.16;;;6.25
61595;BMP280;47397;48.194;11.632;2023-12-20T00:26:26;95901.34;;;6.28
61595;BMP280;47397;48.194;11.632;2023-12-20T00:27:26;95898.00;;;6.27
61595;BMP280;47397;48.194;11.632;2023-12-20T00:28:26;95890.44;;;6.24
61595;BMP280;47397;48.194;11.632;2023-12-20T00:29:27;95891.28;;;6.25
61595;BMP280;47397;48.194;11.632;2023-12-20T00:30:29;95890.41;;;6.27
61595;BMP280;47397;48.194;11.632;2023-12-20T00:31:29;95894.59;;;6.32
61595;BMP280;47397;48.194;11.632;2023-12-20T00:32:29;95882.84;;;6.27
61595;BMP280;47397;48.194;11.632;2023-12-20T00:33:30;95882.00;;;6.27
61595;BMP280;47397;48.194;11.632;2023-12-20T00:34:30;95881.19;;;6.25
61595;BMP280;47397;48.194;11.632;2023-12-20T00:35:31;95876.97;;;6.27
61595;BMP280;47397;48.194;11.632;2023-12-20T00:36:31;95878.66;;;6.26
61595;BMP280;47397;48.194;11.632;2023-12-20T00:37:31;95876.16;;;6.23
61595;BMP280;47397;48.194;11.632;2023-12-20T00:38:32;95875.28;;;6.24
61595;BMP280;47397;48.194;11.632;2023-12-20T00:39:32;95873.63;;;6.25
61595;BMP280;47397;48.194;11.632;2023-12-20T00:40:32;95879.50;;;6.25
61595;BMP280;47397;48.194;11.632;2023-12-20T00:41:33;95873.59;;;6.26
61595;BMP280;47397;48.194;11.632;2023-12-20T00:42:33;95871.94;;;6.25
61595;BMP280;47397;48.194;11.632;2023-12-20T00:43:34;95861.00;;;6.25
61595;BMP280;47397;48.194;11.632;2023-12-20T00:44:34;95862.69;;;6.24
61595;BMP280;47397;48.194;11.632;2023-12-20T00:45:36;95859.34;;;6.22
61595;BMP280;47397;48.194;11.632;2023-12-20T00:46:37;95860.09;;;6.31
61595;BMP280;47397;48.194;11.632;2023-12-20T00:47:37;95857.59;;;6.29
61595;BMP280;47397;48.194;11.632;2023-12-20T00:48:37;95857.59;;;6.29
61595;BMP280;47397;48.194;11.632;2023-12-20T00:49:38;95852.56;;;6.32
61595;BMP280;47397;48.194;11.632;2023-12-20T00:50:38;95850.88;;;6.33
61595;BMP280;47397;48.194;11.632;2023-12-20T00:51:39;95857.59;;;6.32
61595;BMP280;47397;48.194;11.632;2023-12-20T00:52:39;95857.59;;;6.29
61595;BMP280;47397;48.194;11.632;2023-12-20T00:53:39;95851.69;;;6.32
61595;BMP280;47397;48.194;11.632;2023-12-20T00:54:40;95862.59;;;6.38
61595;BMP280;47397;48.194;11.632;2023-12-20T00:55:40;95861.78;;;6.35
61595;BMP280;47397;48.194;11.632;2023-12-20T00:56:41;95853.38;;;6.34
61595;BMP280;47397;48.194;11.632;2023-12-20T00:57:41;95858.41;;;6.37
61595;BMP280;47397;48.194;11.632;2023-12-20T00:58:41;95850.84;;;6.34
61595;BMP280;47397;48.194;11.632;2023-12-20T00:59:42;95843.28;;;6.34
61595;BMP280;47397;48.194;11.632;2023-12-20T01:00:44;95847.47;;;6.35
61595;BMP280;47397;48.194;11.632;2023-12-20T01:01:44;95852.41;;;6.49
61595;BMP280;47397;48.194;11.632;2023-12-20T01:02:44;95845.66;;;6.49
61595;BMP280;47397;48.194;11.632;2023-12-20T01:03:45;95844.88;;;6.43
61595;BMP280;47397;48.194;11.632;2023-12-20T01:04:45;95849.91;;;6.44
61595;BMP280;47397;48.194;11.632;2023-12-20T01:05:45;95833.09;;;6.42
61595;BMP280;47397;48.194;11.632;2023-12-20T01:06:46;95843.22;;;6.40
61595;BMP280;47397;48.194;11.632;2023-12-20T01:07:46;95841.56;;;6.38
61595;BMP280;47397;48.194;11.632;2023-12-20T01:08:47;95847.47;;;6.37
61595;BMP280;47397;48.194;11.632;2023-12-20T01:09:47;95838.19;;;6.37
61595;BMP280;47397;48.194;11.632;2023-12-20T01:10:47;95838.19;;;6.39
61595;BMP280;47397;48.194;11.632;2023-12-20T01:11:48;95826.41;;;6.39
61595;BMP280;47397;48.194;11.632;2023-12-20T01:12:48;95832.25;;;6.43
61595;BMP280;47397;48.194;11.632;2023-12-20T01:13:49;95827.19;;;6.44
61595;BMP280;47397;48.194;11.632;2023-12-20T01:14:49;95822.97;;;6.45
61595;BMP280;47397;48.194;11.632;2023-12-20T01:15:51;95822.13;;;6.46
61595;BMP280;47397;48.194;11.632;2023-12-20T01:16:51;95819.63;;;6.44
61595;BMP280;47397;48.194;11.632;2023-12-20T01:17:51;95811.22;;;6.42
61595;BMP280;47397;48.194;11.632;2023-12-20T01:18:52;95812.06;;;6.43
61595;BMP280;47397;48.194;11.632;2023-12-20T01:19:52;95814.56;;;6.44
61595;BMP280;47397;48.194;11.632;2023-12-20T01:20:53;95817.06;;;6.49
61595;BMP280;47397;48.194;11.632;2023-12-20T01:21:53;95817.03;;;6.52
61595;BMP280;47397;48.194;11.632;2023-12-20T01:22:53;95821.25;;;6.48
61595;BMP280;47397;48.194;11.632;2023-12-20T01:23:54;95815.38;;;6.49
61595;BMP280;47397;48.194;11.632;2023-12-20T01:24:54;95823.00;;;6.43
61595;BMP280;47397;48.194;11.632;2023-12-20T01:25:55;95819.63;;;6.43
61595;BMP280;47397;48.194;11.632;2023-12-20T01:26:55;95827.19;;;6.44
61595;BMP280;47397;48.194;11.632;2023-12-20T01:27:55;95826.31;;;6.48
61595;BMP280;47397;48.194;11.632;2023-12-20T01:28:56;95827.97;;;6.51
61595;BMP280;47397;48.194;11.632;2023-12-20T01:29:56;95820.47;;;6.45
61595;BMP280;47397;48.194;11.632;2023-12-20T01:30:58;95822.13;;;6.46
61595;BMP280;47397;48.194;11.632;2023-12-20T01:31:58;95824.63;;;6.47
61595;BMP280;47397;48.194;11.632;2023-12-20T01:32:59;95817.88;;;6.49
61595;BMP280;47397;48.194;11.632;2023-12-20T01:34:00;95826.31;;;6.50
61595;BMP280;47397;48.194;11.632;2023-12-20T01:35:00;95814.50;;;6.52
61595;BMP280;47397;48.194;11.632;2023-12-20T01:36:01;95827.03;;;6.59
61595;BMP280;47397;48.194;11.632;2023-12-20T01:37:01;95820.34;;;6.55
61595;BMP280;47397;48.194;11.632;2023-12-20T01:38:01;95811.97;;;6.52
61595;BMP280;47397;48.194;11.632;2023-12-20T01:39:02;95808.59;;;6.51
61595;BMP280;47397;48.194;11.632;2023-12-20T01:40:03;95811.13;;;6.51
61595;BMP280;47397;48.194;11.632;2023-12-20T01:41:03;95800.19;;;6.51
61595;BMP280;47397;48.194;11.632;2023-12-20T01:42:04;95803.53;;;6.53
61595;BMP280;47397;48.194;11.632;2023-12-20T01:43:07;95793.44;;;6.53
61595;BMP280;47397;48.194;11.632;2023-12-20T01:44:08;95790.88;;;6.57
61595;BMP280;47397;48.194;11.632;2023-12-20T01:45:09;95796.78;;;6.55
61595;BMP280;47397;48.194;11.632;2023-12-20T01:46:11;95796.75;;;6.58
61595;BMP280;47397;48.194;11.632;2023-12-20T01:47:12;95800.97;;;6.56
61595;BMP280;47397;48.194;11.632;2023-12-20T01:48:13;95799.34;;;6.52
61595;BMP280;47397;48.194;11.632;2023-12-20T01:49:15;95803.50;;;6.57
61595;BMP280;47397;48.194;11.632;2023-12-20T01:50:16;95800.16;;;6.54
61595;BMP280;47397;48.194;11.632;2023-12-20T01:51:16;95796.00;;;6.50
61595;BMP280;47397;48.194;11.632;2023-12-20T01:52:18;95798.50;;;6.51
61595;BMP280;47397;48.194;11.632;2023-12-20T01:53:21;95795.13;;;6.52
61595;BMP280;47397;48.194;11.632;2023-12-20T01:54:24;95791.75;;;6.53
61595;BMP280;47397;48.194;11.632;2023-12-20T01:55:25;95792.53;;;6.60
61595;BMP280;47397;48.194;11.632;2023-12-20T01:56:26;95791.69;;;6.59
61595;BMP280;47397;48.194;11.632;2023-12-20T01:57:28;95790.88;;;6.56
61595;BMP280;47397;48.194;11.632;2023-12-20T01:58:28;95779.13;;;6.55
61595;BMP280;47397;48.194;11.632;2023-12-20T01:59:29;95774.03;;;6.56
61595;BMP280;47397;48.194;11.632;2023-12-20T02:00:30;95776.59;;;6.55
61595;BMP280;47397;48.194;11.632;2023-12-20T02:01:32;95785.88;;;6.53
61595;BMP280;47397;48.194;11.632;2023-12-20T02:02:33;95782.50;;;6.52
61595;BMP280;47397;48.194;11.632;2023-12-20T02:03:34;95778.28;;;6.53
61595;BMP280;47397;48.194;11.632;2023-12-20T02:04:35;95775.69;;;6.59
61595;BMP280;47397;48.194;11.632;2023-12-20T02:05:35;95774.91;;;6.55
61595;BMP280;47397;48.194;11.632;2023-12-20T02:06:38;95774.94;;;6.52
61595;BMP280;47397;48.194;11.632;2023-12-20T02:07:40;95773.25;;;6.53
61595;BMP280;47397;48.194;11.632;2023-12-20T02:08:40;95773.28;;;6.50
61595;BMP280;47397;48.194;11.632;2023-12-20T02:09:41;95777.47;;;6.51
61595;BMP280;47397;48.194;11.632;2023-12-20T02:10:41;95769.88;;;6.52
61595;BMP280;47397;48.194;11.632;2023-12-20T02:11:42;95761.44;;;6.55
61595;BMP280;47397;48.194;11.632;2023-12-20T02:12:42;95758.06;;;6.54
61595;BMP280;47397;48.194;11.632;2023-12-20T02:13:42;95747.06;;;6.60
61595;BMP280;47397;48.194;11.632;2023-12-20T02:14:43;95749.59;;;6.62
61595;BMP280;47397;48.194;11.632;2023-12-20T02:15:43;95747.09;;;6.58
61595;BMP280;47397;48.194;11.632;2023-12-20T02:16:45;95732.78;;;6.57
61595;BMP280;47397;48.194;11.632;2023-12-20T02:17:46;95736.16;;;6.58
61595;BMP280;47397;48.194;11.632;2023-12-20T02:18:47;95732.75;;;6.61
61595;BMP280;47397;48.194;11.632;2023-12-20T02:19:47;95729.38;;;6.63
61595;BMP280;47397;48.194;11.632;2023-12-20T02:20:48;95728.56;;;6.58
61595;BMP280;47397;48.194;11.632;2023-12-20T02:21:49;95736.09;;;6.64
61595;BMP280;47397;48.194;11.632;2023-12-20T02:22:50;95740.31;;;6.62
61595;BMP280;47397;48.194;11.632;2023-12-20T02:23:50;95738.69;;;6.58
61595;BMP280;47397;48.194;11.632;2023-12-20T02:24:51;95734.47;;;6.58
61595;BMP280;47397;48.194;11.632;2023-12-20T02:25:51;95731.91;;;6.60
61595;BMP280;47397;48.194;11.632;2023-12-20T02:26:51;95733.59;;;6.61
61595;BMP280;47397;48.194;11.632;2023-12-20T02:27:52;95726.94;;;6.55
61595;BMP280;47397;48.194;11.632;2023-12-20T02:28:52;95746.25;;;6.58
61595;BMP280;47397;48.194;11.632;2023-12-20T02:29:53;95747.09;;;6.57
61595;BMP280;47397;48.194;11.632;2023-12-20T02:30:53;95750.41;;;6.64
61595;BMP280;47397;48.194;11.632;2023-12-20T02:31:53;95740.28;;;6.65
61595;BMP280;47397;48.194;11.632;2023-12-20T02:32:54;95739.44;;;6.65
61595;BMP280;47397;48.194;11.632;2023-12-20T02:33:55;95743.66;;;6.64
61595;BMP280;47397;48.194;11.632;2023-12-20T02:34:55;95746.25;;;6.59
61595;BMP280;47397;48.194;11.632;2023-12-20T02:35:55;95748.72;;;6.63
61595;BMP280;47397;48.194;11.632;2023-12-20T02:36:57;95746.19;;;6.64
61595;BMP280;47397;48.194;11.632;2023-12-20T02:37:57;95750.41;;;6.62
61595;BMP280;47397;48.194;11.632;2023-12-20T02:38:58;95743.63;;;6.67
61595;BMP280;47397;48.194;11.632;2023-12-20T02:39:58;95741.94;;;6.66
61595;BMP280;47397;48.194;11.632;2023-12-20T02:40:59;95738.56;;;6.67
61595;BMP280;47397;48.194;11.632;2023-12-20T02:41:59;95734.38;;;6.69
61595;BMP280;47397;48.194;11.632;2023-12-20T02:42:59;95736.91;;;6.65
61595;BMP280;47397;48.194;11.632;2023-12-20T02:44:01;95737.75;;;6.67
61595;BMP280;47397;48.194;11.632;2023-12-20T02:45:01;95731.88;;;6.63
61595;BMP280;47397;48.194;11.632;2023-12-20T02:46:02;95736.03;;;6.69
61595;BMP280;47397;48.194;11.632;2023-12-20T02:47:03;95725.09;;;6.68
61595;BMP280;47397;48.194;11.632;2023-12-20T02:48:04;95718.34;;;6.69
61595;BMP280;47397;48.194;11.632;2023-12-20T02:49:04;95719.22;;;6.69
61595;BMP280;47397;48.194;11.632;2023-12-20T02:50:05;95713.31;;;6.67
61595;BMP280;47397;48.194;11.632;2023-12-20T02:51:06;95714.97;;;6.71
61595;BMP280;47397;48.194;11.632;2023-12-20T02:52:08;95720.91;;;6.67
61595;BMP280;47397;48.194;11.632;2023-12-20T02:53:08;95710.81;;;6.66
61595;BMP280;47397;48.194;11.632;2023-12-20T02:54:08;95711.66;;;6.66
61595;BMP280;47397;48.194;11.632;2023-12-20T02:55:09;95705.72;;;6.69
61595;BMP280;47397;48.194;11.632;2023-12-20T02:56:09;95704.06;;;6.66
61595;BMP280;47397;48.194;11.632;2023-12-20T02:57:10;95709.16;;;6.65
61595;BMP280;47397;48.194;11.632;2023-12-20T02:58:10;95715.84;;;6.67
61595;BMP280;47397;48.194;11.632;2023-12-20T02:59:10;95709.16;;;6.65
61595;BMP280;47397;48.194;11.632;2023-12-20T03:00:11;95709.94;;;6.68
61595;BMP280;47397;48.194;11.632;2023-12-20T03:01:12;95714.16;;;6.69
61595;BMP280;47397;48.194;11.632;2023-12-20T03:02:12;95711.63;;;6.68
61595;BMP280;47397;48.194;11.632;2023-12-20T03:03:13;95717.50;;;6.68
61595;BMP280;47397;48.194;11.632;2023-12-20T03:04:13;95715.00;;;6.68
61595;BMP280;47397;48.194;11.632;2023-12-20T03:05:13;95716.69;;;6.69
61595;BMP280;47397;48.194;11.632;2023-12-20T03:06:16;95709.94;;;6.70
61595;BMP280;47397;48.194;11.632;2023-12-20T03:07:18;95712.41;;;6.76
61595;BMP280;47397;48.194;11.632;2023-12-20T03:08:19;95711.59;;;6.74
61595;BMP280;47397;48.194;11.632;2023-12-20T03:09:19;95707.34;;;6.76
61595;BMP280;47397;48.194;11.632;2023-12-20T03:10:19;95709.06;;;6.74
61595;BMP280;47397;48.194;11.632;2023-12-20T03:11:20;95711.63;;;6.71
61595;BMP280;47397;48.194;11.632;2023-12-20T03:12:20;95710.72;;;6.75
61595;BMP280;47397;48.194;11.632;2023-12-20T03:13:20;95718.25;;;6.79
61595;BMP280;47397;48.194;11.632;2023-12-20T03:14:21;95717.41;;;6.79
61595;BMP280;47397;48.194;11.632;2023-12-20T03:15:21;95719.97;;;6.77
61595;BMP280;47397;48.194;11.632;2023-12-20T03:16:22;95717.44;;;6.76
61595;BMP280;47397;48.194;11.632;2023-12-20T03:17:22;95713.19;;;6.79
61595;BMP280;47397;48.194;11.632;2023-12-20T03:18:22;95722.44;;;6.82
61595;BMP280;47397;48.194;11.632;2023-12-20T03:19:23;95717.38;;;6.80
61595;BMP280;47397;48.194;11.632;2023-12-20T03:20:23;95723.31;;;6.79
61595;BMP280;47397;48.194;11.632;2023-12-20T03:21:24;95724.94;;;6.83
61595;BMP280;47397;48.194;11.632;2023-12-20T03:22:25;95724.13;;;6.81
61595;BMP280;47397;48.194;11.632;2023-12-20T03:23:26;95719.09;;;6.80
61595;BMP280;47397;48.194;11.632;2023-12-20T03:24:26;95714.88;;;6.80
61595;BMP280;47397;48.194;11.632;2023-12-20T03:25:26;95720.72;;;6.84
61595;BMP280;47397;48.194;11.632;2023-12-20T03:26:27;95724.94;;;6.82
61595;BMP280;47397;48.194;11.632;2023-12-20T03:27:27;95717.28;;;6.88
61595;BMP280;47397;48.194;11.632;2023-12-20T03:28:28;95719.81;;;6.88
61595;BMP280;47397;48.194;11.632;2023-12-20T03:29:28;95726.56;;;6.87
61595;BMP280;47397;48.194;11.632;2023-12-20T03:30:28;95724.06;;;6.86
61595;BMP280;47397;48.194;11.632;2023-12-20T03:31:29;95726.53;;;6.90
61595;BMP280;47397;48.194;11.632;2023-12-20T03:32:29;95723.16;;;6.90
61595;BMP280;47397;48.194;11.632;2023-12-20T03:33:30;95723.19;;;6.88
61595;BMP280;47397;48.194;11.632;2023-12-20T03:34:30;95722.38;;;6.86
61595;BMP280;47397;48.194;11.632;2023-12-20T03:35:30;95724.84;;;6.89
61595;BMP280;47397;48.194;11.632;2023-12-20T03:36:31;95721.47;;;6.90
61595;BMP280;47397;48.194;11.632;2023-12-20T03:37:32;95730.69;;;6.93
61595;BMP280;47397;48.194;11.632;2023-12-20T03:38:33;95724.78;;;6.94
61595;BMP280;47397;48.194;11.632;2023-12-20T03:39:33;95734.91;;;6.93
61595;BMP280;47397;48.194;11.632;2023-12-20T03:40:34;95735.78;;;6.92
61595;BMP280;47397;48.194;11.632;2023-12-20T03:41:34;95738.28;;;6.93
61595;BMP280;47397;48.194;11.632;2023-12-20T03:42:34;95738.25;;;6.95
61595;BMP280;47397;48.194;11.632;2023-12-20T03:43:35;95737.38;;;6.97
61595;BMP280;47397;48.194;11.632;2023-12-20T03:44:38;95742.47;;;6.96
61595;BMP280;47397;48.194;11.632;2023-12-20T03:45:38;95743.34;;;6.93
61595;BMP280;47397;48.194;11.632;2023-12-20T03:46:39;95748.38;;;6.93
61595;BMP280;47397;48.194;11.632;2023-12-20T03:47:39;95747.56;;;6.91
61595;BMP280;47397;48.194;11.632;2023-12-20T03:48:39;95755.13;;;6.93
61595;BMP280;47397;48.194;11.632;2023-12-20T03:49:40;95755.06;;;6.97
61595;BMP280;47397;48.194;11.632;2023-12-20T03:50:40;95751.72;;;6.95
61595;BMP280;47397;48.194;11.632;2023-12-20T03:51:40;95756.81;;;6.94
61595;BMP280;47397;48.194;11.632;2023-12-20T03:52:42;95762.72;;;6.91
61595;BMP280;47397;48.194;11.632;2023-12-20T03:53:43;95764.41;;;6.92
61595;BMP280;47397;48.194;11.632;2023-12-20T03:54:43;95770.28;;;6.93
61595;BMP280;47397;48.194;11.632;2023-12-20T03:55:44;95769.47;;;6.90
61595;BMP280;47397;48.194;11.632;2023-12-20T03:56:44;95764.44;;;6.89
61595;BMP280;47397;48.194;11.632;2023-12-20T03:57:44;95771.16;;;6.90
61595;BMP280;47397;48.194;11.632;2023-12-20T03:58:45;95767.81;;;6.88
61595;BMP280;47397;48.194;11.632;2023-12-20T03:59:45;95772.91;;;6.85
61595;BMP280;47397;48.194;11.632;2023-12-20T04:00:46;95771.22;;;6.85
61595;BMP280;47397;48.194;11.632;2023-12-20T04:01:46;95772.94;;;6.82
61595;BMP280;47397;48.194;11.632;2023-12-20T04:02:46;95765.38;;;6.80
61595;BMP280;47397;48.194;11.632;2023-12-20T04:03:47;95765.38;;;6.80
61595;BMP280;47397;48.194;11.632;2023-12-20T04:04:47;95764.53;;;6.81
61595;BMP280;47397;48.194;11.632;2023-12-20T04:05:48;95761.97;;;6.84
61595;BMP280;47397;48.194;11.632;2023-12-20T04:06:48;95762.84;;;6.80
61595;BMP280;47397;48.194;11.632;2023-12-20T04:07:50;95765.38;;;6.80
61595;BMP280;47397;48.194;11.632;2023-12-20T04:08:50;95769.53;;;6.84
61595;BMP280;47397;48.194;11.632;2023-12-20T04:09:51;95770.53;;;6.73
61595;BMP280;47397;48.194;11.632;2023-12-20T04:10:51;95768.88;;;6.69
61595;BMP280;47397;48.194;11.632;2023-12-20T04:11:51;95775.63;;;6.67
61595;BMP280;47397;48.194;11.632;2023-12-20T04:12:52;95770.59;;;6.65
61595;BMP280;47397;48.194;11.632;2023-12-20T04:13:52;95768.94;;;6.61
61595;BMP280;47397;48.194;11.632;2023-12-20T04:14:53;95774.81;;;6.63
61595;BMP280;47397;48.194;11.632;2023-12-20T04:15:53;95770.63;;;6.62
61595;BMP280;47397;48.194;11.632;2023-12-20T04:16:53;95777.34;;;6.63
61595;BMP280;47397;48.194;11.632;2023-12-20T04:17:54;95771.50;;;6.59
61595;BMP280;47397;48.194;11.632;2023-12-20T04:18:54;95778.28;;;6.53
61595;BMP280;47397;48.194;11.632;2023-12-20T04:19:54;95783.34;;;6.53
61595;BMP280;47397;48.194;11.632;2023-12-20T04:20:55;95780.91;;;6.44
61595;BMP280;47397;48.194;11.632;2023-12-20T04:21:55;95771.63;;;6.46
61595;BMP280;47397;48.194;11.632;2023-12-20T04:22:57;95764.97;;;6.40
61595;BMP280;47397;48.194;11.632;2023-12-20T04:23:57;95762.44;;;6.40
61595;BMP280;47397;48.194;11.632;2023-12-20T04:24:58;95759.94;;;6.37
61595;BMP280;47397;48.194;11.632;2023-12-20T04:25:58;95763.28;;;6.39
61595;BMP280;47397;48.194;11.632;2023-12-20T04:26:59;95757.44;;;6.36
61595;BMP280;47397;48.194;11.632;2023-12-20T04:27:59;95763.34;;;6.32
61595;BMP280;47397;48.194;11.632;2023-12-20T04:28:59;95765.03;;;6.34
61595;BMP280;47397;48.194;11.632;2023-12-20T04:30:00;95761.75;;;6.23
61595;BMP280;47397;48.194;11.632;2023-12-20T04:31:00;95761.69;;;6.29
61595;BMP280;47397;48.194;11.632;2023-12-20T04:32:00;95769.28;;;6.27
61595;BMP280;47397;48.194;11.632;2023-12-20T04:33:01;95759.22;;;6.24
61595;BMP280;47397;48.194;11.632;2023-12-20T04:34:01;95763.38;;;6.28
61595;BMP280;47397;48.194;11.632;2023-12-20T04:35:02;95768.41;;;6.28
61595;BMP280;47397;48.194;11.632;2023-12-20T04:36:03;95772.63;;;6.30
61595;BMP280;47397;48.194;11.632;2023-12-20T04:37:03;95767.59;;;6.26
61595;BMP280;47397;48.194;11.632;2023-12-20T04:38:05;95768.44;;;6.25
61595;BMP280;47397;48.194;11.632;2023-12-20T04:39:06;95770.16;;;6.22
61595;BMP280;47397;48.194;11.632;2023-12-20T04:40:07;95774.41;;;6.18
61595;BMP280;47397;48.194;11.632;2023-12-20T04:41:07;95759.28;;;6.17
61595;BMP280;47397;48.194;11.632;2023-12-20T04:42:08;95764.28;;;6.23
61595;BMP280;47397;48.194;11.632;2023-12-20T04:43:08;95765.94;;;6.24
61595;BMP280;47397;48.194;11.632;2023-12-20T04:44:09;95759.31;;;6.12
61595;BMP280;47397;48.194;11.632;2023-12-20T04:45:09;95764.34;;;6.15
61595;BMP280;47397;48.194;11.632;2023-12-20T04:46:10;95771.03;;;6.19
61595;BMP280;47397;48.194;11.632;2023-12-20T04:47:10;95781.97;;;6.18
61595;BMP280;47397;48.194;11.632;2023-12-20T04:48:10;95782.00;;;6.15
61595;BMP280;47397;48.194;11.632;2023-12-20T04:49:11;95774.47;;;6.12
61595;BMP280;47397;48.194;11.632;2023-12-20T04:50:11;95780.31;;;6.16
61595;BMP280;47397;48.194;11.632;2023-12-20T04:51:12;95780.38;;;6.10
61595;BMP280;47397;48.194;11.632;2023-12-20T04:52:12;95782.09;;;6.05
61595;BMP280;47397;48.194;11.632;2023-12-20T04:53:17;95784.66;;;6.00
61595;BMP280;47397;48.194;11.632;2023-12-20T04:54:17;95789.72;;;6.00
61595;BMP280;47397;48.194;11.632;2023-12-20T04:55:17;95798.94;;;6.03
61595;BMP280;47397;48.194;11.632;2023-12-20T04:56:18;95793.88;;;6.04
61595;BMP280;47397;48.194;11.632;2023-12-20T04:57:18;95807.34;;;6.03
61595;BMP280;47397;48.194;11.632;2023-12-20T04:58:19;95803.97;;;6.03
61595;BMP280;47397;48.194;11.632;2023-12-20T04:59:19;95801.44;;;6.04
61595;BMP280;47397;48.194;11.632;2023-12-20T05:00:20;95803.97;;;6.06
61595;BMP280;47397;48.194;11.632;2023-12-20T05:01:20;95809.03;;;6.04
61595;BMP280;47397;48.194;11.632;2023-12-20T05:02:21;95814.09;;;6.01
61595;BMP280;47397;48.194;11.632;2023-12-20T05:03:21;95804.00;;;6.01
61595;BMP280;47397;48.194;11.632;2023-12-20T05:04:27;95810.78;;;5.91
61595;BMP280;47397;48.194;11.632;2023-12-20T05:05:28;95808.25;;;5.93
61595;BMP280;47397;48.194;11.632;2023-12-20T05:06:28;95813.28;;;5.87
61595;BMP280;47397;48.194;11.632;2023-12-20T05:07:28;95806.59;;;5.86
61595;BMP280;47397;48.194;11.632;2023-12-20T05:08:30;95814.19;;;5.81
61595;BMP280;47397;48.194;11.632;2023-12-20T05:09:31;95816.72;;;5.78
61595;BMP280;47397;48.194;11.632;2023-12-20T05:10:31;95820.09;;;5.77
61595;BMP280;47397;48.194;11.632;2023-12-20T05:11:32;95824.31;;;5.75
61595;BMP280;47397;48.194;11.632;2023-12-20T05:12:32;95815.06;;;5.76
61595;BMP280;47397;48.194;11.632;2023-12-20T05:13:32;95823.47;;;5.76
61595;BMP280;47397;48.194;11.632;2023-12-20T05:14:33;95830.22;;;5.73
61595;BMP280;47397;48.194;11.632;2023-12-20T05:15:33;95832.75;;;5.73
61595;BMP280;47397;48.194;11.632;2023-12-20T05:16:34;95833.59;;;5.72
61595;BMP280;47397;48.194;11.632;2023-12-20T05:17:34;95829.38;;;5.71
61595;BMP280;47397;48.194;11.632;2023-12-20T05:18:34;95827.72;;;5.70
61595;BMP280;47397;48.194;11.632;2023-12-20T05:19:35;95834.47;;;5.66
61595;BMP280;47397;48.194;11.632;2023-12-20T05:20:35;95831.91;;;5.69
61595;BMP280;47397;48.194;11.632;2023-12-20T05:21:35;95833.63;;;5.65
61595;BMP280;47397;48.194;11.632;2023-12-20T05:22:36;95831.13;;;5.62
61595;BMP280;47397;48.194;11.632;2023-12-20T05:23:38;95832.81;;;5.60
61595;BMP280;47397;48.194;11.632;2023-12-20T05:24:38;95837.00;;;5.63
61595;BMP280;47397;48.194;11.632;2023-12-20T05:25:39;95831.97;;;5.61
61595;BMP280;47397;48.194;11.632;2023-12-20T05:26:39;95837.03;;;5.58
61595;BMP280;47397;48.194;11.632;2023-12-20T05:27:39;95831.16;;;5.53
61595;BMP280;47397;48.194;11.632;2023-12-20T05:28:40;95836.19;;;5.58
61595;BMP280;47397;48.194;11.632;2023-12-20T05:29:40;95831.16;;;5.52
61595;BMP280;47397;48.194;11.632;2023-12-20T05:30:41;95838.69;;;5.56
61595;BMP280;47397;48.194;11.632;2023-12-20T05:31:41;95836.19;;;5.52
61595;BMP280;47397;48.194;11.632;2023-12-20T05:32:41;95843.78;;;5.47
61595;BMP280;47397;48.194;11.632;2023-12-20T05:33:42;95837.88;;;5.50
61595;BMP280;47397;48.194;11.632;2023-12-20T05:34:42;95842.13;;;5.45
61595;BMP280;47397;48.194;11.632;2023-12-20T05:35:43;95849.66;;;5.48
61595;BMP280;47397;48.194;11.632;2023-12-20T05:36:43;95843.78;;;5.47
61595;BMP280;47397;48.194;11.632;2023-12-20T05:37:43;95844.63;;;5.46
61595;BMP280;47397;48.194;11.632;2023-12-20T05:38:45;95846.31;;;5.46
61595;BMP280;47397;48.194;11.632;2023-12-20T05:39:46;95847.19;;;5.42
61595;BMP280;47397;48.194;11.632;2023-12-20T05:40:46;95847.16;;;5.46
61595;BMP280;47397;48.194;11.632;2023-12-20T05:41:46;95846.31;;;5.47
61595;BMP280;47397;48.194;11.632;2023-12-20T05:42:47;95848.00;;;5.45
61595;BMP280;47397;48.194;11.632;2023-12-20T05:43:47;95850.56;;;5.39
61595;BMP280;47397;48.194;11.632;2023-12-20T05:44:47;95853.91;;;5.40
61595;BMP280;47397;48.194;11.632;2023-12-20T05:45:48;95853.91;;;5.41
61595;BMP280;47397;48.194;11.632;2023-12-20T05:46:48;95853.91;;;5.38
61595;BMP280;47397;48.194;11.632;2023-12-20T05:47:49;95864.03;;;5.30
61595;BMP280;47397;48.194;11.632;2023-12-20T05:48:49;95863.19;;;5.31